createdAt,value
2023-01-03T00:01:50.771Z,9.50
2023-01-03T00:04:18.692Z,9.60
2023-01-03T00:06:49.372Z,8.70
2023-01-03T00:09:20.241Z,9.68
2023-01-03T00:12:09.026Z,9.50
2023-01-03T00:14:39.307Z,8.80
2023-01-03T00:17:07.635Z,9.57
2023-01-03T00:19:38.888Z,8.95
2023-01-03T00:22:06.520Z,9.40
2023-01-03T00:24:33.869Z,10.18
2023-01-03T00:27:01.205Z,9.90
2023-01-03T00:29:28.543Z,9.43
2023-01-03T00:31:55.684Z,8.88
2023-01-03T00:34:23.007Z,9.18
2023-01-03T00:36:50.395Z,9.80
2023-01-03T00:39:17.669Z,10.00
2023-01-03T00:41:44.777Z,9.10
2023-01-03T00:44:11.952Z,8.73
2023-01-03T00:46:39.156Z,9.43
2023-01-03T00:49:06.780Z,9.35
2023-01-03T00:51:36.691Z,9.05
2023-01-03T00:54:05.806Z,9.15
2023-01-03T00:56:37.322Z,9.48
2023-01-03T00:59:06.135Z,8.70
2023-01-03T01:01:47.063Z,9.40
2023-01-03T01:04:18.259Z,8.57
2023-01-03T01:06:52.967Z,9.85
2023-01-03T01:09:24.964Z,9.20
2023-01-03T01:11:53.405Z,9.52
2023-01-03T01:14:25.450Z,9.15
2023-01-03T01:17:00.112Z,9.00
2023-01-03T01:19:32.173Z,8.80
2023-01-03T01:21:59.626Z,9.20
2023-01-03T01:24:27.561Z,9.00
2023-01-03T01:26:54.592Z,8.07
2023-01-03T01:29:21.947Z,8.70
2023-01-03T01:31:49.758Z,8.80
2023-01-03T01:34:17.264Z,8.93
2023-01-03T01:36:45.812Z,9.13
2023-01-03T01:39:20.190Z,8.80
2023-01-03T01:42:09.173Z,8.15
2023-01-03T01:45:04.999Z,8.25
2023-01-03T01:47:52.161Z,8.23
2023-01-03T01:50:26.266Z,7.75
2023-01-03T01:53:15.816Z,7.80
2023-01-03T01:55:54.266Z,7.13
2023-01-03T01:58:26.144Z,8.65
2023-01-03T02:00:53.568Z,7.88
2023-01-03T02:03:20.656Z,8.18
2023-01-03T02:05:53.193Z,8.60
2023-01-03T02:08:20.910Z,8.00
2023-01-03T02:11:20.274Z,7.60
2023-01-03T02:13:58.765Z,8.30
2023-01-03T02:16:57.601Z,7.90
2023-01-03T02:19:37.814Z,7.18
2023-01-03T02:22:14.906Z,8.15
2023-01-03T02:25:19.467Z,7.82
2023-01-03T02:28:05.037Z,7.72
2023-01-03T02:30:54.497Z,7.43
2023-01-03T02:33:32.628Z,7.90
2023-01-03T02:36:35.830Z,8.40
2023-01-03T02:39:05.660Z,7.55
2023-01-03T02:42:16.185Z,6.85
2023-01-03T02:45:11.609Z,7.40
2023-01-03T02:47:51.485Z,7.10
2023-01-03T02:50:23.867Z,8.25
2023-01-03T02:52:57.107Z,6.97
2023-01-03T02:55:28.970Z,7.35
2023-01-03T02:58:09.841Z,7.72
2023-01-03T03:00:45.007Z,7.45
2023-01-03T03:03:18.607Z,7.28
2023-01-03T03:06:10.360Z,7.75
2023-01-03T03:08:37.713Z,7.28
2023-01-03T03:11:23.553Z,7.15
2023-01-03T03:14:07.335Z,6.78
2023-01-03T03:16:48.831Z,6.60
2023-01-03T03:19:50.484Z,7.03
2023-01-03T03:22:47.305Z,6.57
2023-01-03T03:25:41.714Z,6.22
2023-01-03T03:28:34.325Z,6.38
2023-01-03T03:31:56.783Z,6.75
2023-01-03T03:34:32.728Z,5.85
2023-01-03T03:37:16.858Z,6.95
2023-01-03T03:40:05.483Z,6.90
2023-01-03T03:43:04.935Z,6.97
2023-01-03T03:46:14.931Z,6.97
2023-01-03T03:49:21.450Z,6.90
2023-01-03T03:51:49.997Z,6.85
2023-01-03T03:54:22.480Z,6.05
2023-01-03T03:57:00.128Z,6.85
2023-01-03T03:59:29.661Z,7.38
2023-01-03T04:02:01.356Z,6.78
2023-01-03T04:04:36.798Z,6.35
2023-01-03T04:07:04.846Z,6.05
2023-01-03T04:09:32.064Z,5.00
2023-01-03T04:11:59.145Z,5.70
2023-01-03T04:14:26.253Z,5.13
2023-01-03T04:16:53.391Z,5.05
2023-01-03T04:19:20.418Z,4.78
2023-01-03T04:21:47.589Z,4.40
2023-01-03T04:24:14.625Z,4.93
2023-01-03T04:26:41.690Z,4.45
2023-01-03T04:29:17.981Z,3.69
2023-01-03T04:31:45.107Z,4.32
2023-01-03T04:34:12.236Z,3.65
2023-01-03T04:36:39.353Z,3.22
2023-01-03T04:39:06.482Z,2.72
2023-01-03T04:41:33.622Z,2.80
2023-01-03T04:44:04.532Z,2.83
2023-01-03T04:46:36.605Z,2.88
2023-01-03T04:49:06.520Z,3.22
2023-01-03T04:51:34.228Z,2.70
2023-01-03T04:54:02.472Z,2.90
2023-01-03T04:56:35.947Z,2.88
2023-01-03T04:59:04.126Z,2.72
2023-01-03T05:01:31.537Z,2.58
2023-01-03T05:04:01.029Z,2.30
2023-01-03T05:06:28.706Z,2.30
2023-01-03T05:08:56.191Z,1.92
2023-01-03T05:11:23.794Z,2.40
2023-01-03T05:13:50.915Z,2.28
2023-01-03T05:16:18.302Z,1.70
2023-01-03T05:18:46.079Z,2.05
2023-01-03T05:21:36.604Z,1.70
2023-01-03T05:24:23.111Z,2.70
2023-01-03T05:26:51.240Z,1.95
2023-01-03T05:29:21.915Z,1.60
2023-01-03T05:31:49.868Z,1.60
2023-01-03T05:34:17.178Z,2.17
2023-01-03T05:36:44.270Z,2.35
2023-01-03T05:39:11.557Z,2.50
2023-01-03T05:41:57.460Z,2.63
2023-01-03T05:44:24.808Z,3.08
2023-01-03T05:46:51.921Z,2.85
2023-01-03T05:49:19.046Z,2.40
2023-01-03T05:51:46.168Z,2.28
2023-01-03T05:54:16.214Z,1.92
2023-01-03T05:56:43.649Z,1.95
2023-01-03T05:59:11.261Z,1.98
2023-01-03T06:01:39.178Z,2.10
2023-01-03T06:04:07.338Z,2.28
2023-01-03T06:06:34.827Z,1.67
2023-01-03T06:09:01.901Z,2.00
2023-01-03T06:11:28.975Z,3.15
2023-01-03T06:13:56.149Z,2.03
2023-01-03T06:16:45.857Z,2.40
2023-01-03T06:19:12.967Z,2.47
2023-01-03T06:21:41.627Z,2.83
2023-01-03T06:24:09.917Z,2.10
2023-01-03T06:26:37.565Z,2.50
2023-01-03T06:29:06.687Z,2.38
2023-01-03T06:31:34.105Z,1.88
2023-01-03T06:34:01.435Z,1.90
2023-01-03T06:36:28.637Z,1.93
2023-01-03T06:38:55.738Z,2.33
2023-01-03T06:41:22.722Z,2.00
2023-01-03T06:43:49.779Z,1.30
2023-01-03T06:46:35.965Z,1.88
2023-01-03T06:49:21.615Z,1.90
2023-01-03T06:52:08.900Z,1.80
2023-01-03T06:54:39.286Z,1.98
2023-01-03T06:57:06.323Z,2.00
2023-01-03T06:59:33.459Z,1.70
2023-01-03T07:02:00.722Z,1.30
2023-01-03T07:04:28.171Z,1.20
2023-01-03T07:06:55.558Z,2.08
2023-01-03T07:09:22.868Z,1.57
2023-01-03T07:11:50.659Z,1.80
2023-01-03T07:14:19.052Z,1.92
2023-01-03T07:16:48.577Z,1.70
2023-01-03T07:19:19.830Z,2.07
2023-01-03T07:21:47.192Z,1.20
2023-01-03T07:24:18.710Z,1.40
2023-01-03T07:26:45.920Z,1.70
2023-01-03T07:29:12.975Z,1.60
2023-01-03T07:31:41.729Z,1.83
2023-01-03T19:48:00.813Z,5.70
2023-01-03T19:50:36.813Z,6.60
2023-01-03T19:53:03.986Z,6.97
2023-01-03T19:55:35.481Z,6.13
2023-01-03T19:58:10.349Z,6.50
2023-01-03T20:00:37.432Z,5.83
2023-01-03T20:03:13.005Z,6.00
2023-01-03T20:05:40.257Z,6.73
2023-01-03T20:08:12.477Z,5.33
2023-01-03T20:10:42.097Z,6.30
2023-01-03T20:13:23.267Z,5.50
2023-01-03T20:15:54.284Z,6.90
2023-01-03T20:18:21.266Z,6.10
2023-01-03T20:20:48.945Z,6.07
2023-01-03T20:23:18.093Z,6.20
2023-01-03T20:25:45.536Z,5.97
2023-01-03T20:28:29.419Z,6.00
2023-01-03T20:31:00.869Z,5.80
2023-01-03T20:33:28.861Z,6.97
2023-01-03T20:36:14.405Z,5.67
2023-01-03T20:38:50.246Z,6.53
2023-01-03T20:41:18.888Z,5.90
2023-01-03T20:43:50.494Z,5.60
2023-01-03T20:46:22.524Z,5.70
2023-01-03T20:48:59.694Z,6.13
2023-01-03T20:51:27.011Z,6.23
2023-01-03T20:53:55.439Z,6.30
2023-01-03T20:56:25.730Z,6.40
2023-01-03T20:58:52.829Z,5.80
2023-01-03T21:01:20.021Z,6.37
2023-01-03T21:03:47.279Z,6.70
2023-01-03T21:06:29.602Z,6.13
2023-01-03T21:08:57.964Z,7.20
2023-01-03T21:11:35.961Z,6.70
2023-01-03T21:14:03.872Z,6.67
2023-01-03T21:16:43.165Z,7.33
2023-01-03T21:19:23.361Z,7.20
2023-01-03T21:21:55.418Z,6.53
2023-01-03T21:24:24.322Z,6.93
2023-01-03T21:26:51.792Z,6.63
2023-01-03T21:29:19.022Z,7.20
2023-01-03T21:31:46.333Z,7.13
2023-01-03T21:34:19.988Z,7.23
2023-01-03T21:36:47.675Z,6.77
2023-01-03T21:39:14.867Z,6.47
2023-01-03T21:42:00.727Z,8.07
2023-01-03T21:44:27.939Z,8.00
2023-01-03T21:46:55.067Z,7.10
2023-01-03T21:49:22.199Z,6.90
2023-01-03T21:51:49.272Z,6.90
2023-01-03T21:54:16.360Z,7.20
2023-01-03T21:56:47.021Z,5.73
2023-01-03T21:59:17.486Z,7.30
2023-01-03T22:02:05.027Z,6.60
2023-01-03T22:04:33.326Z,6.37
2023-01-03T22:07:01.095Z,6.83
2023-01-03T22:09:49.056Z,6.83
2023-01-03T22:12:17.536Z,6.90
2023-01-03T22:14:47.827Z,6.83
2023-01-03T22:17:15.864Z,6.97
2023-01-03T22:19:43.062Z,7.17
2023-01-03T22:22:10.179Z,6.83
2023-01-03T22:24:37.221Z,7.23
2023-01-03T22:27:04.291Z,6.33
2023-01-03T22:29:31.351Z,6.70
2023-01-03T22:31:58.453Z,5.90
2023-01-03T22:34:25.540Z,6.43
2023-01-03T22:36:52.722Z,7.00
2023-01-03T22:39:19.709Z,6.17
2023-01-03T22:41:46.694Z,5.97
2023-01-03T22:44:13.704Z,5.80
2023-01-03T22:46:40.804Z,6.43
2023-01-03T22:49:07.855Z,6.97
2023-01-03T22:51:34.866Z,6.33
2023-01-03T22:54:01.879Z,7.13
2023-01-03T22:56:28.970Z,7.03
2023-01-03T22:58:56.002Z,6.13
2023-01-03T23:01:28.021Z,6.80
2023-01-03T23:04:00.677Z,6.77
2023-01-03T23:06:32.893Z,6.97
2023-01-03T23:09:01.296Z,6.67
2023-01-03T23:11:50.596Z,6.70
2023-01-03T23:14:20.702Z,6.97
2023-01-03T23:16:50.851Z,7.50
2023-01-03T23:19:22.047Z,6.33
2023-01-03T23:21:49.388Z,6.30
2023-01-03T23:24:21.208Z,6.77
2023-01-03T23:26:49.907Z,6.83
2023-01-03T23:29:17.445Z,7.37
2023-01-03T23:31:45.316Z,6.63
2023-01-03T23:34:13.350Z,6.73
2023-01-03T23:36:43.364Z,6.57
2023-01-03T23:39:17.409Z,5.90
2023-01-03T23:41:45.672Z,7.40
2023-01-03T23:44:13.199Z,7.07
2023-01-03T23:46:41.405Z,6.90
2023-01-03T23:49:12.486Z,7.40
2023-01-03T23:51:39.633Z,6.77
2023-01-03T23:54:06.803Z,6.27
2023-01-03T23:56:33.903Z,7.50
2023-01-03T23:59:00.965Z,7.13
